createdAt,value
2023-05-07T00:00:06.481Z,14
2023-05-07T00:01:13.582Z,16
2023-05-07T00:02:21.181Z,16
2023-05-07T00:03:27.996Z,14
2023-05-07T00:04:34.687Z,16
2023-05-07T00:05:41.518Z,14
2023-05-07T00:06:49.194Z,15
2023-05-07T00:07:57.032Z,15
2023-05-07T00:09:02.766Z,13
2023-05-07T00:10:09.845Z,15
2023-05-07T00:11:16.407Z,15
2023-05-07T00:12:23.185Z,14
2023-05-07T00:13:30.048Z,14
2023-05-07T00:14:37.068Z,15
2023-05-07T00:15:45.188Z,14
2023-05-07T00:16:52.251Z,14
2023-05-07T00:17:59.305Z,15
2023-05-07T00:19:06.951Z,15
2023-05-07T00:20:15.212Z,15
2023-05-07T00:21:22.343Z,17
2023-05-07T00:22:29.353Z,15
2023-05-07T00:23:36.348Z,16
2023-05-07T00:24:43.332Z,14
2023-05-07T00:25:50.377Z,14
2023-05-07T00:26:57.797Z,16
2023-05-07T00:28:04.792Z,14
2023-05-07T00:29:11.693Z,14
2023-05-07T00:30:23.644Z,14
2023-05-07T00:31:30.514Z,14
2023-05-07T00:32:37.227Z,15
2023-05-07T00:33:44.116Z,13
2023-05-07T00:34:54.476Z,16
2023-05-07T00:36:01.428Z,16
2023-05-07T00:37:08.625Z,13
2023-05-07T00:38:15.728Z,14
2023-05-07T00:39:22.663Z,14
2023-05-07T00:40:29.653Z,14
2023-05-07T00:41:36.619Z,15
2023-05-07T00:42:43.679Z,15
2023-05-07T00:43:50.630Z,14
2023-05-07T00:44:57.720Z,14
2023-05-07T00:46:05.561Z,15
2023-05-07T00:47:12.509Z,13
2023-05-07T00:48:19.629Z,16
2023-05-07T00:49:26.843Z,13
2023-05-07T00:50:38.895Z,16
2023-05-07T00:51:45.881Z,12
2023-05-07T00:52:52.893Z,14
2023-05-07T00:54:02.436Z,14
2023-05-07T00:55:09.573Z,13
2023-05-07T00:56:16.487Z,13
2023-05-07T00:57:23.724Z,14
2023-05-07T00:58:30.667Z,14
2023-05-07T00:59:37.664Z,13
2023-05-07T01:00:44.608Z,13
2023-05-07T01:01:51.838Z,14
2023-05-07T01:02:58.729Z,13
2023-05-07T01:04:05.592Z,13
2023-05-07T01:05:12.558Z,14
2023-05-07T01:06:19.463Z,13
2023-05-07T01:07:26.474Z,15
2023-05-07T01:08:33.446Z,14
2023-05-07T01:09:40.523Z,15
2023-05-07T01:10:47.473Z,13
2023-05-07T01:11:54.437Z,14
2023-05-07T01:13:02.519Z,14
2023-05-07T01:14:09.488Z,14
2023-05-07T01:15:16.623Z,15
2023-05-07T01:16:23.620Z,15
2023-05-07T01:17:31.484Z,14
2023-05-07T01:18:38.371Z,13
2023-05-07T01:19:45.471Z,15
2023-05-07T01:20:52.700Z,15
2023-05-07T01:22:02.475Z,14
2023-05-07T01:23:12.280Z,15
2023-05-07T01:24:19.338Z,14
2023-05-07T01:25:26.340Z,15
2023-05-07T01:26:33.272Z,15
2023-05-07T01:27:40.233Z,13
2023-05-07T01:28:47.220Z,13
2023-05-07T01:29:54.138Z,12
2023-05-07T01:31:01.111Z,13
2023-05-07T01:32:07.994Z,15
2023-05-07T01:33:15.806Z,13
2023-05-07T01:34:23.034Z,14
2023-05-07T01:35:30.004Z,15
2023-05-07T01:36:37.063Z,11
2023-05-07T01:37:43.946Z,11
2023-05-07T01:38:50.949Z,12
2023-05-07T01:39:57.952Z,11
2023-05-07T01:41:04.908Z,12
2023-05-07T01:42:11.826Z,11
2023-05-07T01:43:18.818Z,12
2023-05-07T01:44:25.818Z,12
2023-05-07T01:45:34.662Z,11
2023-05-07T01:46:41.581Z,12
2023-05-07T01:47:48.472Z,12
2023-05-07T01:48:55.335Z,11
2023-05-07T01:50:02.331Z,12
2023-05-07T01:51:09.496Z,10
2023-05-07T01:52:17.477Z,11
2023-05-07T01:53:24.292Z,12
2023-05-07T01:54:32.441Z,10
2023-05-07T01:55:39.337Z,10
2023-05-07T01:56:46.302Z,11
2023-05-07T01:57:53.535Z,11
2023-05-07T01:59:01.957Z,11
2023-05-07T02:00:08.654Z,10
2023-05-07T02:01:15.684Z,9
2023-05-07T02:02:22.644Z,9
2023-05-07T02:03:29.901Z,9
2023-05-07T02:04:36.780Z,9
2023-05-07T02:05:46.337Z,10
2023-05-07T02:06:53.279Z,8
2023-05-07T02:08:00.265Z,8
2023-05-07T02:09:07.366Z,9
2023-05-07T02:10:14.350Z,9
2023-05-07T02:11:21.308Z,9
2023-05-07T02:12:28.374Z,9
2023-05-07T02:13:35.235Z,10
2023-05-07T02:14:42.120Z,10
2023-05-07T02:15:49.186Z,8
2023-05-07T02:16:56.154Z,8
2023-05-07T02:18:03.162Z,8
2023-05-07T02:19:10.085Z,8
2023-05-07T02:20:17.977Z,9
2023-05-07T02:21:25.247Z,9
2023-05-07T02:22:32.211Z,8
2023-05-07T02:23:39.164Z,9
2023-05-07T02:24:46.032Z,9
2023-05-07T02:25:53.952Z,9
2023-05-07T02:27:01.128Z,9
2023-05-07T02:28:08.087Z,10
2023-05-07T02:29:16.906Z,9
2023-05-07T02:30:23.888Z,9
2023-05-07T02:31:30.921Z,9
2023-05-07T02:32:40.682Z,10
2023-05-07T02:33:47.605Z,9
2023-05-07T02:34:55.409Z,9
2023-05-07T02:36:02.372Z,9
2023-05-07T02:37:12.622Z,9
2023-05-07T02:38:19.558Z,9
2023-05-07T02:39:26.712Z,8
2023-05-07T02:40:33.388Z,9
2023-05-07T02:41:40.518Z,9
2023-05-07T02:42:48.268Z,9
2023-05-07T02:43:55.249Z,10
2023-05-07T02:45:02.195Z,10
2023-05-07T02:46:09.561Z,9
2023-05-07T02:47:17.387Z,10
2023-05-07T02:48:24.384Z,9
2023-05-07T02:49:31.337Z,9
2023-05-07T02:50:38.360Z,7
2023-05-07T02:51:45.311Z,8
2023-05-07T02:52:52.321Z,10
2023-05-07T02:53:59.364Z,9
2023-05-07T02:55:06.430Z,11
2023-05-07T02:56:13.389Z,9
2023-05-07T02:57:20.358Z,10
2023-05-07T02:58:27.395Z,10
2023-05-07T02:59:34.298Z,11
2023-05-07T03:00:41.250Z,11
2023-05-07T03:01:48.221Z,10
2023-05-07T03:02:55.212Z,11
2023-05-07T03:04:02.218Z,10
2023-05-07T03:05:09.176Z,10
2023-05-07T03:06:16.143Z,10
2023-05-07T03:07:23.119Z,12
2023-05-07T03:08:30.075Z,10
2023-05-07T03:09:37.115Z,9
2023-05-07T03:10:44.448Z,9
2023-05-07T03:11:52.414Z,12
2023-05-07T03:12:59.430Z,10
2023-05-07T03:14:06.332Z,11
2023-05-07T03:15:13.275Z,10
2023-05-07T03:16:20.595Z,10
2023-05-07T03:17:27.556Z,11
2023-05-07T03:18:34.634Z,9
2023-05-07T03:19:41.606Z,10
2023-05-07T03:20:48.579Z,10
2023-05-07T03:21:56.701Z,10
2023-05-07T03:23:03.715Z,9
2023-05-07T03:24:10.647Z,11
2023-05-07T03:25:17.612Z,11
2023-05-07T03:26:24.613Z,10
2023-05-07T03:27:33.361Z,10
2023-05-07T03:28:40.779Z,12
2023-05-07T03:29:47.667Z,10
2023-05-07T03:30:54.639Z,13
2023-05-07T03:32:01.648Z,10
2023-05-07T03:33:08.644Z,11
2023-05-07T03:34:15.625Z,9
2023-05-07T03:35:22.536Z,10
2023-05-07T03:36:29.577Z,12
2023-05-07T03:37:36.848Z,12
2023-05-07T03:38:43.841Z,12
2023-05-07T03:39:50.856Z,10
2023-05-07T03:40:57.778Z,10
2023-05-07T03:42:04.742Z,10
2023-05-07T03:43:12.552Z,10
2023-05-07T03:44:19.478Z,12
2023-05-07T03:45:26.648Z,12
2023-05-07T03:46:33.626Z,11
2023-05-07T03:47:43.972Z,13
2023-05-07T03:48:50.933Z,11
2023-05-07T03:49:57.946Z,11
2023-05-07T03:51:04.954Z,10
2023-05-07T03:52:11.873Z,11
2023-05-07T03:53:18.804Z,12
2023-05-07T03:54:25.895Z,13
2023-05-07T03:55:32.873Z,12
2023-05-07T03:56:39.816Z,13
2023-05-07T03:57:46.938Z,12
2023-05-07T03:58:53.728Z,13
2023-05-07T04:00:00.770Z,12
2023-05-07T04:01:08.013Z,10
2023-05-07T04:02:15.001Z,11
2023-05-07T04:03:22.257Z,11
2023-05-07T04:04:29.127Z,12
2023-05-07T04:05:36.092Z,10
2023-05-07T04:06:43.076Z,10
2023-05-07T04:07:51.056Z,10
2023-05-07T04:08:58.026Z,9
2023-05-07T04:10:05.085Z,10
2023-05-07T04:11:12.409Z,9
2023-05-07T04:12:19.343Z,10
2023-05-07T04:13:26.659Z,10
2023-05-07T04:14:33.479Z,8
2023-05-07T04:15:40.646Z,9
2023-05-07T04:16:47.732Z,9
2023-05-07T04:17:55.689Z,9
2023-05-07T04:19:02.669Z,8
2023-05-07T04:20:10.739Z,9
2023-05-07T04:21:20.428Z,8
2023-05-07T04:22:27.454Z,8
2023-05-07T04:23:34.426Z,8
2023-05-07T04:24:41.533Z,8
2023-05-07T04:25:48.570Z,8
2023-05-07T04:26:55.569Z,7
2023-05-07T04:28:02.792Z,8
2023-05-07T04:29:09.838Z,7
2023-05-07T04:30:16.813Z,8
2023-05-07T04:31:23.923Z,9
2023-05-07T04:32:30.886Z,8
2023-05-07T04:33:37.890Z,8
2023-05-07T04:34:45.915Z,9
2023-05-07T04:35:52.876Z,9
2023-05-07T04:36:59.722Z,8
2023-05-07T04:38:06.668Z,7
2023-05-07T04:39:13.650Z,8
2023-05-07T04:40:20.566Z,9
2023-05-07T04:41:27.504Z,9
2023-05-07T04:42:35.345Z,8
2023-05-07T04:43:42.298Z,9
2023-05-07T04:44:49.297Z,8
2023-05-07T04:45:56.200Z,9
2023-05-07T04:47:03.022Z,8
2023-05-07T04:48:10.008Z,8
2023-05-07T04:49:18.720Z,8
2023-05-07T04:50:25.710Z,8
2023-05-07T04:51:32.774Z,8
2023-05-07T04:52:39.622Z,9
2023-05-07T04:53:46.485Z,7
2023-05-07T04:54:53.426Z,8
2023-05-07T04:56:00.348Z,8
2023-05-07T04:57:07.488Z,8
2023-05-07T04:58:14.434Z,8
2023-05-07T04:59:21.560Z,7
2023-05-07T05:00:28.604Z,7
2023-05-07T05:01:35.452Z,7
2023-05-07T05:02:42.513Z,8
2023-05-07T05:03:49.418Z,8
2023-05-07T05:04:56.317Z,7
2023-05-07T05:06:03.268Z,10
2023-05-07T05:07:10.199Z,7
2023-05-07T05:08:17.154Z,7
2023-05-07T05:09:24.062Z,6
2023-05-07T05:10:30.945Z,6
2023-05-07T05:11:37.864Z,6
2023-05-07T05:12:44.784Z,7
2023-05-07T05:13:51.953Z,7
2023-05-07T05:14:58.870Z,5
2023-05-07T05:16:05.975Z,5
2023-05-07T05:17:12.711Z,5
2023-05-07T05:18:19.875Z,6
2023-05-07T05:19:26.769Z,5
2023-05-07T05:20:33.684Z,6
2023-05-07T05:21:40.582Z,6
2023-05-07T05:22:47.458Z,6
2023-05-07T05:23:54.517Z,6
2023-05-07T05:25:01.623Z,5
2023-05-07T05:26:08.753Z,7
2023-05-07T05:27:15.647Z,6
2023-05-07T05:28:22.617Z,5
2023-05-07T05:29:29.535Z,7
2023-05-07T05:30:36.452Z,5
2023-05-07T05:31:43.597Z,5
2023-05-07T05:32:50.476Z,6
2023-05-07T05:33:57.287Z,7
2023-05-07T05:35:04.212Z,5
2023-05-07T05:36:11.391Z,6
2023-05-07T05:37:18.248Z,6
2023-05-07T05:38:25.162Z,5
2023-05-07T05:39:32.192Z,5
2023-05-07T05:40:40.151Z,6
2023-05-07T05:41:47.028Z,5
2023-05-07T05:42:54.020Z,7
2023-05-07T05:44:00.960Z,6
2023-05-07T05:45:07.989Z,6
2023-05-07T05:46:14.977Z,6
2023-05-07T05:47:22.212Z,5
2023-05-07T05:48:29.031Z,6
2023-05-07T05:49:36.093Z,5
2023-05-07T05:50:43.135Z,5
2023-05-07T05:51:50.084Z,6
2023-05-07T05:52:57.006Z,6
2023-05-07T05:54:04.026Z,6
2023-05-07T05:55:10.888Z,5
2023-05-07T05:56:17.875Z,6
2023-05-07T05:57:26.039Z,6
2023-05-07T05:58:32.592Z,7
2023-05-07T05:59:39.486Z,6
2023-05-07T06:00:46.457Z,5
2023-05-07T06:01:53.295Z,7
2023-05-07T06:03:02.586Z,8
2023-05-07T06:04:10.505Z,8
2023-05-07T06:05:17.446Z,6
2023-05-07T06:06:24.491Z,8
2023-05-07T06:07:31.405Z,7
2023-05-07T06:08:38.274Z,7
2023-05-07T06:09:45.353Z,8
2023-05-07T06:10:52.220Z,7
2023-05-07T06:12:00.659Z,7
2023-05-07T06:13:06.101Z,8
2023-05-07T06:14:13.048Z,9
2023-05-07T06:15:20.216Z,8
2023-05-07T06:16:28.220Z,8
2023-05-07T06:17:40.053Z,8
2023-05-07T06:18:49.709Z,9
2023-05-07T06:19:57.432Z,8
2023-05-07T06:21:04.400Z,9
2023-05-07T06:22:11.290Z,8
2023-05-07T06:23:18.305Z,8
2023-05-07T06:24:25.170Z,9
2023-05-07T06:25:32.068Z,8
2023-05-07T06:26:39.176Z,7
2023-05-07T06:27:46.202Z,7
2023-05-07T06:28:53.055Z,8
2023-05-07T06:30:00.243Z,8
2023-05-07T06:31:07.310Z,9
2023-05-07T06:32:19.362Z,8
2023-05-07T06:33:26.249Z,8
2023-05-07T06:34:34.288Z,8
2023-05-07T06:35:41.098Z,9
2023-05-07T06:36:48.015Z,7
2023-05-07T06:37:54.969Z,8
2023-05-07T06:39:01.913Z,10
2023-05-07T06:40:09.227Z,9
2023-05-07T06:41:15.979Z,8
2023-05-07T06:42:22.948Z,11
2023-05-07T06:43:29.851Z,9
2023-05-07T06:44:36.765Z,10
2023-05-07T06:45:43.771Z,7
2023-05-07T06:46:50.667Z,8
2023-05-07T06:47:57.634Z,8
2023-05-07T06:49:04.505Z,9
2023-05-07T06:50:11.789Z,9
2023-05-07T06:51:18.353Z,9
2023-05-07T06:52:25.282Z,7
2023-05-07T06:53:32.434Z,8
2023-05-07T06:54:39.588Z,7
2023-05-07T06:55:47.914Z,9
2023-05-07T06:56:54.802Z,8
2023-05-07T06:58:01.722Z,8
2023-05-07T06:59:08.671Z,8
2023-05-07T07:00:15.849Z,8
2023-05-07T07:01:23.163Z,7
2023-05-07T07:02:29.990Z,9
2023-05-07T07:03:36.850Z,7
2023-05-07T07:04:43.758Z,8
2023-05-07T07:05:50.980Z,8
2023-05-07T07:06:57.804Z,7
2023-05-07T07:08:04.826Z,7
2023-05-07T07:09:11.815Z,8
2023-05-07T07:10:19.664Z,7
2023-05-07T07:11:26.670Z,7
2023-05-07T07:12:33.717Z,8
2023-05-07T07:13:40.735Z,7
2023-05-07T07:14:47.689Z,6
2023-05-07T07:15:54.686Z,7
2023-05-07T07:17:01.695Z,7
2023-05-07T07:18:08.698Z,7
2023-05-07T07:19:15.652Z,7
2023-05-07T07:20:22.654Z,7
2023-05-07T07:21:29.914Z,8
2023-05-07T07:22:36.628Z,7
2023-05-07T07:23:43.653Z,10
2023-05-07T07:24:50.578Z,7
2023-05-07T07:25:57.531Z,8
2023-05-07T07:27:04.507Z,8
2023-05-07T07:28:11.600Z,10
2023-05-07T07:29:18.559Z,10
2023-05-07T07:30:25.610Z,9
2023-05-07T07:31:32.584Z,10
2023-05-07T07:32:40.450Z,9
2023-05-07T07:33:48.267Z,7
2023-05-07T07:34:55.327Z,8
2023-05-07T07:36:02.335Z,8
2023-05-07T07:37:09.549Z,8
2023-05-07T07:38:16.435Z,8
2023-05-07T07:39:23.426Z,10
2023-05-07T07:40:30.472Z,8
2023-05-07T07:41:40.425Z,15
2023-05-07T07:42:47.388Z,8
2023-05-07T07:43:54.305Z,8
2023-05-07T07:45:01.248Z,8
2023-05-07T07:46:08.520Z,8
2023-05-07T07:47:15.721Z,8
2023-05-07T07:48:22.633Z,7
2023-05-07T07:49:29.592Z,9
2023-05-07T07:50:44.172Z,8
2023-05-07T07:51:44.466Z,7
2023-05-07T07:52:51.680Z,8
2023-05-07T07:53:58.504Z,7
2023-05-07T07:55:05.456Z,7
2023-05-07T07:56:12.615Z,7
2023-05-07T07:57:19.587Z,7
2023-05-07T07:58:26.560Z,8
2023-05-07T07:59:33.523Z,8
2023-05-07T08:00:40.403Z,8
2023-05-07T08:01:47.467Z,7
2023-05-07T08:02:54.588Z,7
2023-05-07T08:04:01.452Z,7
2023-05-07T08:05:08.328Z,8
2023-05-07T08:06:15.415Z,6
2023-05-07T08:07:22.307Z,8
2023-05-07T08:08:29.297Z,7
2023-05-07T08:09:36.210Z,6
2023-05-07T08:10:43.112Z,5
2023-05-07T08:11:50.060Z,6
2023-05-07T08:12:57.030Z,7
2023-05-07T08:14:04.063Z,8
2023-05-07T08:15:11.033Z,7
2023-05-07T08:16:17.980Z,7
2023-05-07T08:17:25.042Z,6
2023-05-07T08:18:31.844Z,5
2023-05-07T08:19:38.723Z,6
2023-05-07T08:20:45.769Z,7
2023-05-07T08:21:52.709Z,6
2023-05-07T08:22:59.708Z,5
2023-05-07T08:24:06.594Z,6
2023-05-07T08:25:13.451Z,7
2023-05-07T08:26:20.452Z,6
2023-05-07T08:27:27.384Z,6
2023-05-07T08:28:34.301Z,6
2023-05-07T08:29:41.261Z,8
2023-05-07T08:30:48.269Z,7
2023-05-07T08:31:55.285Z,7
2023-05-07T08:33:02.257Z,7
2023-05-07T08:34:10.126Z,6
2023-05-07T08:35:16.115Z,7
2023-05-07T08:36:23.226Z,7
2023-05-07T08:37:30.156Z,7
2023-05-07T08:38:37.119Z,8
2023-05-07T08:39:46.956Z,8
2023-05-07T08:40:53.782Z,7
2023-05-07T08:42:00.806Z,5
2023-05-07T08:43:07.843Z,7
2023-05-07T08:44:17.926Z,6
2023-05-07T08:45:25.033Z,6
2023-05-07T08:46:32.075Z,6
2023-05-07T08:47:38.968Z,7
2023-05-07T08:48:48.867Z,6
2023-05-07T08:49:55.866Z,6
2023-05-07T08:51:02.955Z,6
2023-05-07T08:52:10.220Z,6
2023-05-07T08:53:16.847Z,6
2023-05-07T08:54:23.782Z,6
2023-05-07T08:55:30.802Z,6
2023-05-07T08:56:37.632Z,7
2023-05-07T08:57:44.648Z,8
2023-05-07T08:58:51.524Z,6
2023-05-07T08:59:58.406Z,6
2023-05-07T09:01:05.282Z,6
2023-05-07T09:02:17.528Z,7
2023-05-07T09:03:24.463Z,6
2023-05-07T09:04:31.294Z,6
2023-05-07T09:05:38.189Z,5
2023-05-07T09:06:46.224Z,7
2023-05-07T09:07:54.458Z,6
2023-05-07T09:09:00.074Z,8
2023-05-07T09:10:07.049Z,5
2023-05-07T09:11:14.284Z,8
2023-05-07T09:12:21.124Z,8
2023-05-07T09:13:28.155Z,7
2023-05-07T09:14:35.044Z,7
2023-05-07T09:15:42.184Z,7
2023-05-07T09:16:49.237Z,8
2023-05-07T09:17:56.124Z,7
2023-05-07T09:19:03.047Z,5
2023-05-07T09:20:11.199Z,5
2023-05-07T09:21:17.198Z,5
2023-05-07T09:22:24.144Z,7
2023-05-07T09:23:31.305Z,6
2023-05-07T09:24:38.237Z,6
2023-05-07T09:25:45.223Z,6
2023-05-07T09:26:52.589Z,7
2023-05-07T09:27:59.554Z,6
2023-05-07T09:29:06.521Z,7
2023-05-07T09:30:13.485Z,5
2023-05-07T09:31:21.503Z,6
2023-05-07T09:32:30.358Z,6
2023-05-07T09:33:37.313Z,6
2023-05-07T09:34:44.196Z,6
2023-05-07T09:35:51.109Z,7
2023-05-07T09:36:58.232Z,6
2023-05-07T09:38:08.205Z,6
2023-05-07T09:39:15.196Z,5
2023-05-07T09:40:22.162Z,6
2023-05-07T09:41:29.147Z,5
2023-05-07T09:42:36.107Z,6
2023-05-07T09:43:43.038Z,6
2023-05-07T09:44:49.937Z,7
2023-05-07T09:45:56.955Z,5
2023-05-07T09:47:03.881Z,6
2023-05-07T09:48:10.820Z,5
2023-05-07T09:49:19.168Z,5
2023-05-07T09:50:24.649Z,6
2023-05-07T09:51:31.634Z,5
2023-05-07T09:52:45.184Z,5
2023-05-07T09:53:52.115Z,5
2023-05-07T09:54:59.106Z,5
2023-05-07T09:56:05.992Z,4
2023-05-07T09:57:13.031Z,6
2023-05-07T09:58:20.076Z,5
2023-05-07T09:59:29.853Z,5
2023-05-07T10:00:34.677Z,6
2023-05-07T10:01:41.669Z,5
2023-05-07T10:02:48.623Z,7
2023-05-07T10:03:57.732Z,6
2023-05-07T10:05:04.512Z,7
2023-05-07T10:06:12.451Z,6
2023-05-07T10:07:19.534Z,6
2023-05-07T10:08:26.421Z,7
2023-05-07T10:09:33.424Z,6
2023-05-07T10:10:40.325Z,5
2023-05-07T10:11:47.245Z,6
2023-05-07T10:12:54.262Z,5
2023-05-07T10:14:04.760Z,6
2023-05-07T10:15:12.663Z,6
2023-05-07T10:16:19.307Z,6
2023-05-07T10:17:26.358Z,6
2023-05-07T10:18:33.188Z,5
2023-05-07T10:19:40.245Z,6
2023-05-07T10:20:47.183Z,6
2023-05-07T10:21:54.065Z,7
2023-05-07T10:23:00.990Z,6
2023-05-07T10:24:07.944Z,6
2023-05-07T10:25:14.996Z,6
2023-05-07T10:26:22.873Z,8
2023-05-07T10:27:30.706Z,6
2023-05-07T10:28:37.644Z,7
2023-05-07T10:29:44.642Z,6
2023-05-07T10:30:56.657Z,6
2023-05-07T10:32:08.658Z,6
2023-05-07T10:33:26.811Z,6
2023-05-07T10:34:33.798Z,6
2023-05-07T10:35:40.773Z,6
2023-05-07T10:36:47.783Z,7
2023-05-07T10:37:54.739Z,7
2023-05-07T10:39:02.449Z,6
2023-05-07T10:40:09.511Z,6
2023-05-07T10:41:16.701Z,6
2023-05-07T10:42:24.622Z,6
2023-05-07T10:43:31.523Z,7
2023-05-07T10:44:44.533Z,8
2023-05-07T10:45:51.691Z,6
2023-05-07T10:47:08.881Z,7
2023-05-07T10:48:28.532Z,6
2023-05-07T10:49:25.892Z,6
2023-05-07T10:50:33.018Z,6
2023-05-07T10:51:42.686Z,7
2023-05-07T10:52:49.603Z,6
2023-05-07T10:54:08.000Z,5
2023-05-07T10:55:15.694Z,5
2023-05-07T10:56:22.900Z,5
2023-05-07T10:57:29.899Z,6
2023-05-07T10:58:36.829Z,5
2023-05-07T10:59:43.765Z,6
2023-05-07T11:00:50.822Z,6
2023-05-07T11:01:57.967Z,6
2023-05-07T11:03:04.908Z,5
2023-05-07T11:04:11.863Z,6
2023-05-07T11:05:19.028Z,6
2023-05-07T11:06:25.996Z,6
2023-05-07T11:07:32.998Z,5
2023-05-07T11:08:40.054Z,5
2023-05-07T11:09:57.481Z,5
2023-05-07T11:11:05.287Z,6
2023-05-07T11:12:12.274Z,5
2023-05-07T11:13:19.352Z,5
2023-05-07T11:14:36.514Z,6
2023-05-07T11:15:46.154Z,6
2023-05-07T11:16:53.167Z,5
2023-05-07T11:18:00.212Z,6
2023-05-07T11:19:07.147Z,6
2023-05-07T11:20:14.305Z,6
2023-05-07T11:21:21.261Z,6
2023-05-07T11:22:38.437Z,6
2023-05-07T11:23:46.348Z,7
2023-05-07T11:24:53.478Z,8
2023-05-07T11:26:00.424Z,7
2023-05-07T11:27:12.778Z,7
2023-05-07T11:28:19.780Z,6
2023-05-07T11:29:26.787Z,7
2023-05-07T11:30:33.742Z,6
2023-05-07T11:31:40.788Z,5
2023-05-07T11:32:47.863Z,5
2023-05-07T11:33:54.772Z,5
2023-05-07T11:35:01.721Z,7
2023-05-07T11:36:08.856Z,6
2023-05-07T11:37:15.940Z,6
2023-05-07T11:38:22.880Z,5
2023-05-07T11:39:29.843Z,6
2023-05-07T11:40:40.084Z,7
2023-05-07T11:41:53.497Z,6
2023-05-07T11:42:59.271Z,6
2023-05-07T11:44:06.232Z,6
2023-05-07T11:45:13.341Z,7
2023-05-07T11:46:20.748Z,6
2023-05-07T11:47:27.774Z,7
2023-05-07T11:48:34.739Z,7
2023-05-07T11:49:46.374Z,7
2023-05-07T11:50:57.253Z,7
2023-05-07T11:52:06.633Z,8
2023-05-07T11:53:13.930Z,7
2023-05-07T11:54:19.078Z,7
2023-05-07T11:55:26.960Z,8
2023-05-07T11:56:33.955Z,9
2023-05-07T11:57:40.875Z,6
2023-05-07T11:58:47.797Z,7
2023-05-07T11:59:54.730Z,6
2023-05-07T12:01:01.700Z,7
2023-05-07T12:02:09.713Z,7
2023-05-07T12:03:19.669Z,8
2023-05-07T12:04:27.500Z,7
2023-05-07T12:05:34.446Z,6
2023-05-07T12:06:41.333Z,6
2023-05-07T12:07:48.305Z,7
2023-05-07T12:08:55.253Z,8
2023-05-07T12:10:03.086Z,8
2023-05-07T12:11:10.135Z,7
2023-05-07T12:12:19.666Z,7
2023-05-07T12:13:28.647Z,7
2023-05-07T12:14:36.448Z,6
2023-05-07T12:15:44.341Z,6
2023-05-07T12:16:51.314Z,6
2023-05-07T12:17:58.389Z,6
2023-05-07T12:19:08.866Z,7
2023-05-07T12:20:18.817Z,5
2023-05-07T12:21:25.824Z,6
2023-05-07T12:22:32.838Z,5
2023-05-07T12:23:40.982Z,6
2023-05-07T12:24:47.927Z,6
2023-05-07T12:25:54.843Z,7
2023-05-07T12:27:02.749Z,6
2023-05-07T12:28:09.699Z,6
2023-05-07T12:29:16.657Z,7
2023-05-07T12:30:30.520Z,8
2023-05-07T12:31:40.589Z,7
2023-05-07T12:32:47.521Z,7
2023-05-07T12:33:57.112Z,6
2023-05-07T12:35:04.093Z,7
2023-05-07T12:36:11.240Z,7
2023-05-07T12:37:18.335Z,8
2023-05-07T12:38:29.236Z,7
2023-05-07T12:39:39.858Z,7
2023-05-07T12:40:55.411Z,8
2023-05-07T12:42:02.307Z,7
2023-05-07T12:43:09.300Z,7
2023-05-07T12:44:19.176Z,7
2023-05-07T12:45:30.160Z,7
2023-05-07T12:46:43.167Z,6
2023-05-07T12:47:50.178Z,7
2023-05-07T12:48:59.318Z,6
2023-05-07T12:50:06.211Z,7
2023-05-07T12:51:13.333Z,17
2023-05-07T12:52:20.311Z,6
2023-05-07T12:53:28.245Z,6
2023-05-07T12:54:35.262Z,7
2023-05-07T12:55:42.206Z,6
2023-05-07T12:56:49.122Z,8
2023-05-07T12:57:56.079Z,9
2023-05-07T12:59:03.190Z,9
2023-05-07T13:00:10.097Z,7
2023-05-07T13:01:17.394Z,9
2023-05-07T13:02:24.506Z,6
2023-05-07T13:03:36.636Z,7
2023-05-07T13:04:44.471Z,7
2023-05-07T13:05:51.355Z,8
2023-05-07T13:07:01.116Z,7
2023-05-07T13:08:08.121Z,8
2023-05-07T13:09:15.187Z,8
2023-05-07T13:10:22.340Z,8
2023-05-07T13:11:29.517Z,9
2023-05-07T13:12:36.626Z,7
2023-05-07T13:13:43.498Z,9
2023-05-07T13:14:50.438Z,8
2023-05-07T13:15:57.448Z,8
2023-05-07T13:17:04.582Z,11
2023-05-07T13:18:11.578Z,9
2023-05-07T13:19:18.618Z,8
2023-05-07T13:20:25.502Z,10
2023-05-07T13:21:32.463Z,8
2023-05-07T13:22:39.415Z,8
2023-05-07T13:23:47.025Z,8
2023-05-07T13:24:54.016Z,8
2023-05-07T13:26:02.522Z,7
2023-05-07T13:27:08.061Z,8
2023-05-07T13:28:15.151Z,8
2023-05-07T13:29:22.039Z,7
2023-05-07T13:30:29.070Z,8
2023-05-07T13:31:36.098Z,8
2023-05-07T13:32:43.083Z,8
2023-05-07T13:33:50.106Z,8
2023-05-07T13:34:57.111Z,8
2023-05-07T13:36:04.250Z,8
2023-05-07T13:37:11.720Z,7
2023-05-07T13:38:18.445Z,8
2023-05-07T13:39:25.527Z,7
2023-05-07T13:40:32.464Z,10
2023-05-07T13:41:39.608Z,8
2023-05-07T13:42:46.689Z,9
2023-05-07T13:43:53.630Z,8
2023-05-07T13:45:00.625Z,8
2023-05-07T13:46:07.835Z,8
2023-05-07T13:47:14.795Z,8
2023-05-07T13:48:21.770Z,11
2023-05-07T13:49:28.746Z,9
2023-05-07T13:50:35.829Z,10
2023-05-07T13:51:42.776Z,15
2023-05-07T13:52:49.611Z,12
2023-05-07T13:53:56.564Z,10
2023-05-07T13:55:03.604Z,9
2023-05-07T13:56:10.768Z,10
2023-05-07T13:57:17.839Z,10
2023-05-07T13:58:24.750Z,11
2023-05-07T13:59:31.770Z,10
2023-05-07T14:00:38.843Z,9
2023-05-07T14:01:45.777Z,8
2023-05-07T14:02:52.866Z,8
2023-05-07T14:04:00.696Z,8
2023-05-07T14:05:07.584Z,11
2023-05-07T14:06:14.729Z,9
2023-05-07T14:07:21.704Z,9
2023-05-07T14:08:31.567Z,9
2023-05-07T14:09:35.653Z,9
2023-05-07T14:10:42.604Z,9
2023-05-07T14:11:49.745Z,11
2023-05-07T14:12:56.721Z,8
2023-05-07T14:14:03.641Z,10
2023-05-07T14:15:10.525Z,9
2023-05-07T14:16:17.546Z,9
2023-05-07T14:17:24.548Z,10
2023-05-07T14:18:31.400Z,9
2023-05-07T14:19:38.367Z,10
2023-05-07T14:20:45.320Z,10
2023-05-07T14:21:52.307Z,10
2023-05-07T14:23:00.184Z,11
2023-05-07T14:24:07.111Z,9
2023-05-07T14:25:14.221Z,9
2023-05-07T14:26:21.090Z,9
2023-05-07T14:27:28.105Z,9
2023-05-07T14:28:35.062Z,11
2023-05-07T14:29:42.041Z,8
2023-05-07T14:30:48.979Z,6
2023-05-07T14:31:55.922Z,6
2023-05-07T14:33:02.922Z,6
2023-05-07T14:34:12.851Z,7
2023-05-07T14:35:31.398Z,8
2023-05-07T14:36:43.871Z,6
2023-05-07T14:37:50.961Z,6
2023-05-07T14:38:58.017Z,6
2023-05-07T14:40:04.943Z,7
2023-05-07T14:41:12.326Z,6
2023-05-07T14:42:20.434Z,6
2023-05-07T14:43:27.270Z,6
2023-05-07T14:44:34.224Z,7
2023-05-07T14:45:41.188Z,7
2023-05-07T14:46:48.145Z,6
2023-05-07T14:47:55.129Z,6
2023-05-07T14:49:03.014Z,6
2023-05-07T14:50:09.942Z,6
2023-05-07T14:51:18.783Z,11
2023-05-07T14:52:25.651Z,7
2023-05-07T14:53:32.715Z,7
2023-05-07T14:54:39.783Z,9
2023-05-07T14:55:46.609Z,9
2023-05-07T14:56:53.688Z,9
2023-05-07T14:58:00.649Z,9
2023-05-07T14:59:07.562Z,9
2023-05-07T15:00:14.518Z,7
2023-05-07T15:01:21.733Z,9
2023-05-07T15:02:28.718Z,8
2023-05-07T15:03:35.653Z,8
2023-05-07T15:04:42.690Z,7
2023-05-07T15:05:53.480Z,8
2023-05-07T15:07:00.564Z,9
2023-05-07T15:08:07.591Z,7
2023-05-07T15:09:14.581Z,9
2023-05-07T15:10:21.517Z,8
2023-05-07T15:11:28.450Z,8
2023-05-07T15:12:35.604Z,8
2023-05-07T15:13:42.661Z,8
2023-05-07T15:14:49.482Z,10
2023-05-07T15:15:57.350Z,8
2023-05-07T15:17:04.280Z,7
2023-05-07T15:18:11.311Z,7
2023-05-07T15:19:18.278Z,7
2023-05-07T15:20:25.173Z,7
2023-05-07T15:21:32.088Z,6
2023-05-07T15:22:39.222Z,9
2023-05-07T15:23:46.158Z,8
2023-05-07T15:24:53.226Z,8
2023-05-07T15:26:00.166Z,10
2023-05-07T15:27:07.065Z,10
2023-05-07T15:28:14.091Z,8
2023-05-07T15:29:21.018Z,10
2023-05-07T15:30:27.941Z,8
2023-05-07T15:31:34.974Z,8
2023-05-07T15:32:42.008Z,8
2023-05-07T15:33:49.089Z,9
2023-05-07T15:34:56.025Z,12
2023-05-07T15:36:02.928Z,8
2023-05-07T15:37:10.009Z,10
2023-05-07T15:38:16.915Z,9
2023-05-07T15:39:25.133Z,8
2023-05-07T15:40:30.985Z,12
2023-05-07T15:41:38.007Z,9
2023-05-07T15:42:44.953Z,9
2023-05-07T15:43:51.921Z,9
2023-05-07T15:44:59.011Z,9
2023-05-07T15:46:05.972Z,10
2023-05-07T15:47:12.997Z,10
2023-05-07T15:48:19.934Z,10
2023-05-07T15:49:26.868Z,10
2023-05-07T15:50:33.953Z,9
2023-05-07T15:51:41.170Z,10
2023-05-07T15:52:48.953Z,9
2023-05-07T15:53:55.881Z,9
2023-05-07T15:55:02.964Z,9
2023-05-07T15:56:10.304Z,10
2023-05-07T15:57:17.336Z,10
2023-05-07T15:58:25.265Z,10
2023-05-07T15:59:32.239Z,9
2023-05-07T16:00:39.218Z,11
2023-05-07T16:01:46.605Z,12
2023-05-07T16:02:53.638Z,10
2023-05-07T16:04:00.638Z,9
2023-05-07T16:05:08.630Z,12
2023-05-07T16:06:15.474Z,9
2023-05-07T16:07:22.447Z,9
2023-05-07T16:08:29.578Z,11
2023-05-07T16:09:36.611Z,9
2023-05-07T16:10:43.612Z,8
2023-05-07T16:11:50.610Z,10
2023-05-07T16:12:58.507Z,11
2023-05-07T16:14:05.519Z,8
2023-05-07T16:15:12.732Z,9
2023-05-07T16:16:20.553Z,8
2023-05-07T16:17:27.495Z,10
2023-05-07T16:18:34.439Z,10
2023-05-07T16:19:41.545Z,9
2023-05-07T16:20:48.563Z,10
2023-05-07T16:21:55.546Z,10
2023-05-07T16:23:02.542Z,9
2023-05-07T16:24:09.584Z,12
2023-05-07T16:25:16.776Z,9
2023-05-07T16:26:23.690Z,9